Time;durP1;ratioP1;P1;durP2;ratioP2;P2;SDS_P1;SDS_P2;PMS_P1;PMS_P2;Temp;Humidity;BMP_temperature;BMP_pressure;BME280_temperature;BME280_humidity;BME280_pressure;Samples;Min_cycle;Max_cycle;Signal;HPM_P1;HPM_P2
2023/04/23 00:00:05;;;;;;;;;;;;;;;7.22;80.11;95156.00;5013442;28;1026;-56
2023/04/23 00:02:32;;;;;;;;;;;;;;;7.04;80.52;95160.34;4995988;28;978;-55
2023/04/23 00:05:03;;;;;;;;;;;;;;;6.74;82.21;95155.97;5013280;28;1914;-56
2023/04/23 00:07:30;;;;;;;;;;;;;;;6.77;83.12;95155.69;5013013;28;1014;-56
2023/04/23 00:09:56;;;;;;;;;;;;;;;6.95;82.59;95156.69;5013150;28;1058;-56
2023/04/23 00:12:23;;;;;;;;;;;;;;;6.83;82.07;95155.16;5012772;28;1533;-56
2023/04/23 00:14:49;;;;;;;;;;;;;;;7.00;81.57;95148.28;5012993;28;1027;-56
2023/04/23 00:17:15;;;;;;;;;;;;;;;7.14;81.05;95147.88;5012917;28;1574;-56
2023/04/23 00:19:41;;;;;;;;;;;;;;;7.19;81.96;95150.97;5016013;28;1864;-56
2023/04/23 00:22:07;;;;;;;;;;;;;;;7.29;81.61;95152.78;5016695;28;1130;-56
2023/04/23 00:24:35;;;;;;;;;;;;;;;7.18;80.62;95146.63;5016619;28;1914;-55
2023/04/23 00:27:01;;;;;;;;;;;;;;;6.86;80.48;95146.06;5016825;28;1022;-55
2023/04/23 00:29:27;;;;;;;;;;;;;;;6.59;81.38;95151.03;5016528;28;1098;-56
2023/04/23 00:31:53;;;;;;;;;;;;;;;6.49;82.03;95157.28;5016794;28;1002;-56
2023/04/23 00:34:19;;;;;;;;;;;;;;;6.47;81.92;95156.59;5016751;28;1061;-56
2023/04/23 00:36:45;;;;;;;;;;;;;;;6.54;82.04;95152.44;5016778;28;954;-55
2023/04/23 00:39:11;;;;;;;;;;;;;;;6.70;81.50;95152.75;5016353;28;1093;-55
2023/04/23 00:41:37;;;;;;;;;;;;;;;6.73;80.83;95157.78;5016267;28;1039;-56
2023/04/23 00:44:03;;;;;;;;;;;;;;;6.77;80.07;95159.19;5016333;28;1991;-55
2023/04/23 00:46:29;;;;;;;;;;;;;;;6.71;80.58;95154.41;5016443;28;1106;-55
2023/04/23 00:48:56;;;;;;;;;;;;;;;6.80;81.19;95150.09;5016188;28;1109;-56
2023/04/23 00:51:23;;;;;;;;;;;;;;;6.82;80.94;95150.81;5016092;28;1074;-56
2023/04/23 00:53:49;;;;;;;;;;;;;;;6.63;80.13;95154.28;5016121;28;1861;-55
2023/04/23 00:56:16;;;;;;;;;;;;;;;6.38;80.40;95153.78;5015877;28;1100;-54
2023/04/23 00:58:43;;;;;;;;;;;;;;;6.42;80.82;95157.84;5016293;28;971;-55
2023/04/23 01:01:09;;;;;;;;;;;;;;;6.47;80.76;95156.59;5016106;28;1039;-56
2023/04/23 01:03:36;;;;;;;;;;;;;;;6.51;80.74;95155.38;5015980;28;1910;-56
2023/04/23 01:06:02;;;;;;;;;;;;;;;6.60;80.92;95159.84;5016294;28;1013;-56
2023/04/23 01:08:30;;;;;;;;;;;;;;;6.60;81.35;95154.53;5015883;28;1021;-56
2023/04/23 01:10:56;;;;;;;;;;;;;;;6.28;81.05;95154.72;5010627;28;1333;-56
2023/04/23 01:13:25;;;;;;;;;;;;;;;6.16;82.14;95161.94;4996259;28;978;-56
2023/04/23 01:15:51;;;;;;;;;;;;;;;6.27;82.41;95156.53;4996334;28;974;-55
2023/04/23 01:18:19;;;;;;;;;;;;;;;6.43;82.09;95158.69;4996066;28;1038;-56
2023/04/23 01:20:45;;;;;;;;;;;;;;;6.39;82.12;95151.97;4996180;28;1041;-56
2023/04/23 01:23:11;;;;;;;;;;;;;;;6.44;82.21;95155.06;4995755;28;1991;-56
2023/04/23 01:25:37;;;;;;;;;;;;;;;6.44;81.93;95150.59;4978898;28;1284;-56
2023/04/23 01:28:05;;;;;;;;;;;;;;;6.38;81.78;95156.44;4996165;28;1062;-56
2023/04/23 01:30:32;;;;;;;;;;;;;;;6.17;82.06;95156.50;4995418;28;1047;-55
2023/04/23 01:32:58;;;;;;;;;;;;;;;6.07;83.04;95150.34;4995849;28;1058;-56
2023/04/23 01:35:24;;;;;;;;;;;;;;;6.22;82.59;95153.44;4995745;28;1051;-54
2023/04/23 01:37:52;;;;;;;;;;;;;;;6.29;81.60;95148.44;4996018;28;978;-55
2023/04/23 01:40:19;;;;;;;;;;;;;;;6.15;80.96;95161.13;4995649;28;1031;-56
2023/04/23 01:42:46;;;;;;;;;;;;;;;5.96;81.84;95167.19;4995898;28;1017;-56
2023/04/23 01:45:12;;;;;;;;;;;;;;;5.99;81.83;95174.88;4995517;28;1976;-55
2023/04/23 01:47:40;;;;;;;;;;;;;;;6.09;81.18;95164.31;4995693;28;1042;-56
2023/04/23 01:50:07;;;;;;;;;;;;;;;6.21;80.46;95167.72;4995589;28;1117;-56
2023/04/23 01:52:33;;;;;;;;;;;;;;;6.28;80.53;95163.56;4995394;28;1051;-56
2023/04/23 01:55:00;;;;;;;;;;;;;;;5.89;80.95;95171.31;4995801;28;1002;-55
2023/04/23 01:57:26;;;;;;;;;;;;;;;5.54;82.21;95169.84;4995506;28;1022;-55
2023/04/23 02:00:10;;;;;;;;;;;;;;;5.51;83.08;95170.09;4995367;28;1055;-55
2023/04/23 02:02:36;;;;;;;;;;;;;;;5.68;82.77;95171.34;4995496;28;1049;-55
2023/04/23 02:05:05;;;;;;;;;;;;;;;5.72;81.56;95169.25;4995433;28;1989;-55
2023/04/23 02:07:32;;;;;;;;;;;;;;;5.55;82.30;95181.31;4995437;28;991;-54
2023/04/23 02:09:58;;;;;;;;;;;;;;;5.50;82.96;95173.72;4995211;28;1960;-54
2023/04/23 02:12:24;;;;;;;;;;;;;;;5.56;82.60;95177.66;5011859;28;1529;-55
2023/04/23 02:14:51;;;;;;;;;;;;;;;5.64;82.21;95168.09;5014955;28;986;-55
2023/04/23 02:17:18;;;;;;;;;;;;;;;5.63;82.13;95169.09;5014839;28;997;-55
2023/04/23 02:19:44;;;;;;;;;;;;;;;5.53;82.56;95168.16;5014583;28;967;-55
2023/04/23 02:22:10;;;;;;;;;;;;;;;5.61;82.76;95164.84;5014578;28;1181;-55
2023/04/23 02:24:37;;;;;;;;;;;;;;;5.72;82.45;95161.31;5014601;28;1910;-55
2023/04/23 02:27:03;;;;;;;;;;;;;;;5.83;81.85;95166.53;5014318;28;1046;-55
2023/04/23 02:29:30;;;;;;;;;;;;;;;5.66;81.86;95165.31;5014282;28;1157;-55
2023/04/23 02:31:56;;;;;;;;;;;;;;;5.50;82.80;95170.22;5014346;28;947;-55
2023/04/23 02:34:21;;;;;;;;;;;;;;;5.44;83.74;95169.81;5014213;28;1034;-55
2023/04/23 02:36:47;;;;;;;;;;;;;;;5.37;84.03;95160.66;5014526;28;1014;-55
2023/04/23 02:39:14;;;;;;;;;;;;;;;5.52;83.37;95166.50;5014151;28;1077;-55
2023/04/23 02:41:40;;;;;;;;;;;;;;;5.68;82.95;95177.47;5013540;28;1033;-55
2023/04/23 02:44:06;;;;;;;;;;;;;;;5.78;82.73;95171.38;5014249;28;1996;-54
2023/04/23 02:46:32;;;;;;;;;;;;;;;5.81;82.30;95173.78;5014326;28;1019;-55
2023/04/23 02:48:58;;;;;;;;;;;;;;;5.81;82.14;95174.63;5014072;28;1066;-55
2023/04/23 02:51:25;;;;;;;;;;;;;;;5.83;81.51;95169.19;5013973;28;1109;-55
2023/04/23 02:53:51;;;;;;;;;;;;;;;5.49;80.94;95172.03;5014192;28;1065;-55
2023/04/23 02:56:17;;;;;;;;;;;;;;;5.44;82.00;95171.59;5013804;28;1031;-55
2023/04/23 02:58:42;;;;;;;;;;;;;;;5.49;81.79;95174.69;5014211;28;997;-55
2023/04/23 03:01:09;;;;;;;;;;;;;;;5.56;81.19;95178.53;5013958;28;983;-55
2023/04/23 03:03:35;;;;;;;;;;;;;;;5.41;82.09;95175.34;5013963;28;1910;-54
2023/04/23 03:06:01;;;;;;;;;;;;;;;5.39;82.93;95171.16;5013784;28;1030;-55
2023/04/23 03:08:27;;;;;;;;;;;;;;;5.57;82.37;95176.72;5013891;28;998;-55
2023/04/23 03:10:53;;;;;;;;;;;;;;;5.55;81.68;95176.81;5009136;28;1545;-55
2023/04/23 03:13:19;;;;;;;;;;;;;;;5.35;82.30;95175.88;4994049;28;1033;-55
2023/04/23 03:15:45;;;;;;;;;;;;;;;5.11;84.01;95169.97;4994080;28;1039;-55
2023/04/23 03:18:11;;;;;;;;;;;;;;;5.20;83.96;95172.69;4993868;28;1027;-54
2023/04/23 03:20:37;;;;;;;;;;;;;;;5.40;83.95;95178.94;4993972;28;1349;-55
2023/04/23 03:23:06;;;;;;;;;;;;;;;5.60;83.43;95176.47;4993717;28;1911;-55
2023/04/23 03:25:32;;;;;;;;;;;;;;;5.75;83.49;95185.75;4993959;28;957;-55
2023/04/23 03:27:59;;;;;;;;;;;;;;;5.80;83.22;95183.53;4993905;28;1102;-54
2023/04/23 03:30:26;;;;;;;;;;;;;;;5.85;82.67;95178.69;4993800;28;1031;-55
2023/04/23 03:32:53;;;;;;;;;;;;;;;5.85;82.55;95180.50;4993782;28;1038;-55
2023/04/23 03:35:19;;;;;;;;;;;;;;;5.89;82.07;95189.88;4993685;28;1034;-55
2023/04/23 03:37:45;;;;;;;;;;;;;;;5.95;80.62;95183.19;4994063;28;958;-55
2023/04/23 03:40:11;;;;;;;;;;;;;;;5.71;80.60;95189.66;4993741;28;1032;-55
2023/04/23 03:42:37;;;;;;;;;;;;;;;5.50;81.26;95184.31;4993742;28;1093;-55
2023/04/23 03:45:04;;;;;;;;;;;;;;;5.42;82.27;95187.63;4993739;28;2004;-55
2023/04/23 03:47:30;;;;;;;;;;;;;;;5.47;82.33;95184.59;4993504;28;1027;-54
2023/04/23 03:49:56;;;;;;;;;;;;;;;5.40;82.69;95189.56;4993919;28;1020;-55
2023/04/23 03:52:22;;;;;;;;;;;;;;;5.34;83.65;95202.50;4994826;28;971;-55
2023/04/23 03:54:48;;;;;;;;;;;;;;;5.41;84.20;95193.91;4980546;28;1104;-55
2023/04/23 03:57:15;;;;;;;;;;;;;;;5.71;82.99;95202.91;4997557;28;1035;-55
2023/04/23 03:59:41;;;;;;;;;;;;;;;5.92;82.51;95200.25;4997572;28;1050;-55
2023/04/23 04:02:07;;;;;;;;;;;;;;;5.78;82.41;95213.84;4997450;28;1066;-56
2023/04/23 04:04:33;;;;;;;;;;;;;;;5.78;82.26;95201.41;4997371;28;1910;-56
2023/04/23 04:07:01;;;;;;;;;;;;;;;5.90;82.36;95212.81;4997660;28;1007;-57
2023/04/23 04:09:28;;;;;;;;;;;;;;;5.91;82.19;95216.28;4997377;28;1045;-56
2023/04/23 04:11:54;;;;;;;;;;;;;;;5.79;82.54;95213.72;5010279;28;1630;-57
2023/04/23 04:14:21;;;;;;;;;;;;;;;5.71;82.28;95218.84;5031301;28;1043;-56
2023/04/23 04:16:47;;;;;;;;;;;;;;;5.59;83.45;95226.00;5036687;28;982;-56
2023/04/23 04:19:13;;;;;;;;;;;;;;;5.73;83.24;95229.28;5018883;28;1038;-56
2023/04/23 04:21:39;;;;;;;;;;;;;;;5.80;82.65;95222.50;5036533;28;1041;-56
2023/04/23 04:24:05;;;;;;;;;;;;;;;5.81;82.54;95234.81;5036332;28;1918;-56
2023/04/23 04:26:31;;;;;;;;;;;;;;;5.93;82.80;95231.09;5036716;28;1010;-56
2023/04/23 04:28:58;;;;;;;;;;;;;;;6.17;82.22;95224.72;5036832;28;1088;-56
2023/04/23 04:31:26;;;;;;;;;;;;;;;6.39;80.99;95229.84;5036371;28;1057;-56
2023/04/23 04:33:56;;;;;;;;;;;;;;;6.35;81.13;95233.72;5036776;28;1053;-56
2023/04/23 04:36:24;;;;;;;;;;;;;;;6.48;81.52;95238.81;5036545;28;989;-56
2023/04/23 04:38:50;;;;;;;;;;;;;;;7.09;79.16;95242.34;5036193;28;1105;-56
2023/04/23 04:41:18;;;;;;;;;;;;;;;7.66;77.61;95248.66;5036331;28;975;-57
2023/04/23 04:43:45;;;;;;;;;;;;;;;7.98;76.54;95247.50;5036195;28;1918;-56
2023/04/23 04:46:11;;;;;;;;;;;;;;;8.05;76.89;95250.47;5035943;28;1058;-57
2023/04/23 04:48:37;;;;;;;;;;;;;;;8.13;76.69;95250.56;5036148;28;1141;-56
2023/04/23 04:51:03;;;;;;;;;;;;;;;8.13;77.37;95247.91;5036270;28;1029;-56
2023/04/23 04:53:29;;;;;;;;;;;;;;;8.14;78.48;95249.59;5018729;28;1239;-56
2023/04/23 04:55:55;;;;;;;;;;;;;;;8.24;79.28;95263.72;5035940;28;1068;-56
2023/04/23 04:58:21;;;;;;;;;;;;;;;8.40;79.05;95258.66;5035917;28;1114;-56
2023/04/23 05:00:50;;;;;;;;;;;;;;;8.53;79.44;95255.66;5035844;28;1039;-56
2023/04/23 05:03:20;;;;;;;;;;;;;;;8.75;79.19;95257.13;5035599;28;1987;-56
2023/04/23 05:05:47;;;;;;;;;;;;;;;9.02;76.65;95257.28;5035489;28;958;-56
2023/04/23 05:08:17;;;;;;;;;;;;;;;9.13;76.05;95255.25;5035632;28;1054;-56
2023/04/23 05:10:43;;;;;;;;;;;;;;;9.16;75.39;95251.44;5032560;28;1607;-56
2023/04/23 05:13:09;;;;;;;;;;;;;;;9.32;75.57;95262.28;5015991;28;1057;-56
2023/04/23 05:15:35;;;;;;;;;;;;;;;9.38;74.74;95261.69;5015787;28;1035;-56
2023/04/23 05:18:03;;;;;;;;;;;;;;;9.34;73.61;95257.63;5016042;28;1009;-56
2023/04/23 05:20:29;;;;;;;;;;;;;;;9.56;73.06;95252.84;5015653;28;1030;-56
2023/04/23 05:22:58;;;;;;;;;;;;;;;9.68;71.87;95256.13;5015538;28;1076;-56
2023/04/23 05:25:24;;;;;;;;;;;;;;;9.75;73.76;95254.50;5015618;28;1911;-56
2023/04/23 05:27:50;;;;;;;;;;;;;;;9.77;72.04;95258.72;5015270;28;1041;-56
2023/04/23 05:30:16;;;;;;;;;;;;;;;9.96;73.72;95259.56;5015645;28;974;-56
2023/04/23 05:32:42;;;;;;;;;;;;;;;10.29;71.40;95262.47;5015111;28;971;-56
2023/04/23 05:35:08;;;;;;;;;;;;;;;10.52;70.82;95255.59;4997189;28;1226;-56
2023/04/23 05:37:34;;;;;;;;;;;;;;;10.52;69.46;95255.59;5015273;28;1113;-56
2023/04/23 05:40:01;;;;;;;;;;;;;;;10.71;70.07;95253.72;5014489;28;1006;-57
2023/04/23 05:42:27;;;;;;;;;;;;;;;10.87;69.73;95261.81;5015386;28;1045;-57
2023/04/23 05:44:53;;;;;;;;;;;;;;;11.17;69.57;95261.44;5015041;28;1980;-57
2023/04/23 05:47:20;;;;;;;;;;;;;;;11.16;67.83;95257.94;5015225;28;1042;-57
2023/04/23 05:49:46;;;;;;;;;;;;;;;11.23;67.39;95258.97;5015330;28;1014;-57
2023/04/23 05:52:12;;;;;;;;;;;;;;;11.44;67.63;95257.66;4997736;28;1046;-57
2023/04/23 05:54:40;;;;;;;;;;;;;;;11.62;65.24;95263.72;5015017;28;1081;-57
2023/04/23 05:57:06;;;;;;;;;;;;;;;11.88;65.96;95263.59;5014959;28;1046;-57
2023/04/23 05:59:33;;;;;;;;;;;;;;;11.82;65.78;95268.75;5014802;28;990;-57
2023/04/23 06:01:59;;;;;;;;;;;;;;;11.89;67.95;95268.00;5015073;28;1017;-57
2023/04/23 06:04:25;;;;;;;;;;;;;;;11.89;66.66;95264.41;4997616;28;1984;-57
2023/04/23 06:06:51;;;;;;;;;;;;;;;12.12;64.25;95269.97;5014931;28;1035;-57
2023/04/23 06:09:17;;;;;;;;;;;;;;;12.74;64.55;95269.41;5014561;28;1082;-57
2023/04/23 06:11:43;;;;;;;;;;;;;;;12.96;62.50;95267.03;4997126;28;1274;-57
2023/04/23 06:14:10;;;;;;;;;;;;;;;13.23;62.69;95265.72;5014840;28;1022;-57
2023/04/23 06:16:36;;;;;;;;;;;;;;;13.59;59.25;95268.75;5013896;28;1005;-58
2023/04/23 06:19:02;;;;;;;;;;;;;;;13.39;61.68;95264.84;5014595;28;1027;-56
2023/04/23 06:21:29;;;;;;;;;;;;;;;13.50;59.84;95263.63;5014426;28;1037;-57
2023/04/23 06:23:55;;;;;;;;;;;;;;;13.36;59.87;95263.34;5014325;28;1907;-57
2023/04/23 06:26:21;;;;;;;;;;;;;;;13.35;60.42;95260.84;5014302;28;1046;-57
2023/04/23 06:28:47;;;;;;;;;;;;;;;13.68;58.89;95261.50;5014959;28;988;-57
2023/04/23 06:31:13;;;;;;;;;;;;;;;13.70;58.05;95263.97;5014575;28;955;-57
2023/04/23 06:33:39;;;;;;;;;;;;;;;13.76;58.67;95260.59;5014677;28;967;-56
2023/04/23 06:36:08;;;;;;;;;;;;;;;13.72;57.92;95261.97;5014332;28;1034;-56
2023/04/23 06:38:34;;;;;;;;;;;;;;;13.90;59.42;95259.00;5014148;28;1054;-57
2023/04/23 06:41:00;;;;;;;;;;;;;;;14.38;58.39;95262.28;5014509;28;979;-57
2023/04/23 06:43:26;;;;;;;;;;;;;;;14.81;57.96;95259.91;5013992;28;1906;-57
2023/04/23 06:45:52;;;;;;;;;;;;;;;15.02;57.33;95265.41;5014303;28;1011;-57
2023/04/23 06:48:19;;;;;;;;;;;;;;;14.68;56.25;95257.81;5013961;28;1113;-57
2023/04/23 06:50:46;;;;;;;;;;;;;;;14.73;57.80;95254.59;5014197;28;1019;-58
2023/04/23 06:53:12;;;;;;;;;;;;;;;15.15;56.22;95261.19;5014106;28;1046;-58
2023/04/23 06:55:38;;;;;;;;;;;;;;;15.45;54.83;95266.56;5014140;28;1058;-58
2023/04/23 06:58:06;;;;;;;;;;;;;;;15.66;55.19;95257.69;5013735;28;994;-58
2023/04/23 07:00:32;;;;;;;;;;;;;;;15.93;54.60;95256.13;5013868;28;1017;-58
2023/04/23 07:02:58;;;;;;;;;;;;;;;16.16;53.01;95256.78;5013719;28;2016;-58
2023/04/23 07:05:24;;;;;;;;;;;;;;;15.96;52.79;95261.16;5013140;28;1912;-58
2023/04/23 07:07:50;;;;;;;;;;;;;;;16.22;53.92;95252.50;5013909;28;1246;-58
2023/04/23 07:10:16;;;;;;;;;;;;;;;16.37;53.62;95253.25;5013516;28;1025;-58
2023/04/23 07:12:42;;;;;;;;;;;;;;;16.66;51.58;95261.38;4994010;28;1625;-58
2023/04/23 07:15:08;;;;;;;;;;;;;;;16.67;52.08;95246.81;4993975;28;1039;-58
2023/04/23 07:17:34;;;;;;;;;;;;;;;16.93;51.46;95247.03;4994112;28;1018;-58
2023/04/23 07:20:05;;;;;;;;;;;;;;;17.21;49.80;95251.56;4994175;28;1054;-58
2023/04/23 07:22:31;;;;;;;;;;;;;;;17.32;50.76;95217.72;4993865;28;1269;-58
2023/04/23 07:24:57;;;;;;;;;;;;;;;17.76;48.70;95247.00;4994119;28;1906;-58
2023/04/23 07:27:24;;;;;;;;;;;;;;;17.65;47.82;95244.06;4993570;28;1030;-58
2023/04/23 07:29:50;;;;;;;;;;;;;;;17.82;47.44;95236.41;4994044;28;1074;-58
2023/04/23 07:32:16;;;;;;;;;;;;;;;18.24;47.38;95245.25;4993700;28;1098;-58
2023/04/23 07:34:42;;;;;;;;;;;;;;;18.09;48.66;95235.44;4993992;28;947;-58
2023/04/23 07:37:08;;;;;;;;;;;;;;;18.05;49.22;95236.06;4994031;28;1118;-58
2023/04/23 07:39:34;;;;;;;;;;;;;;;18.25;47.91;95233.38;4993753;28;1026;-58
2023/04/23 07:42:01;;;;;;;;;;;;;;;18.27;47.55;95236.75;4993807;28;1409;-58
2023/04/23 07:44:27;;;;;;;;;;;;;;;18.16;48.72;95230.06;4993634;28;1993;-58
2023/04/23 07:46:53;;;;;;;;;;;;;;;18.34;49.44;95222.19;4993988;28;995;-58
2023/04/23 07:49:19;;;;;;;;;;;;;;;18.30;46.58;95230.91;4993775;28;932;-58
2023/04/23 07:51:45;;;;;;;;;;;;;;;18.58;48.49;95222.56;4993662;28;1015;-58
2023/04/23 07:54:11;;;;;;;;;;;;;;;18.66;47.37;95224.22;4993508;28;998;-57
2023/04/23 07:56:36;;;;;;;;;;;;;;;18.58;46.25;95228.00;4993525;28;1045;-58
2023/04/23 07:59:04;;;;;;;;;;;;;;;18.60;49.37;95223.19;4993887;28;991;-57
2023/04/23 08:01:33;;;;;;;;;;;;;;;19.01;47.61;95221.28;4993766;28;1042;-57
2023/04/23 08:03:59;;;;;;;;;;;;;;;19.14;47.32;95215.81;4993303;28;1981;-58
2023/04/23 08:06:26;;;;;;;;;;;;;;;19.30;46.71;95209.94;4993342;28;931;-57
2023/04/23 08:08:54;;;;;;;;;;;;;;;19.44;46.34;95220.75;4993509;28;1038;-58
2023/04/23 08:11:20;;;;;;;;;;;;;;;19.50;47.92;95214.44;5002005;28;1644;-58
2023/04/23 08:13:47;;;;;;;;;;;;;;;19.29;45.75;95213.72;5012947;28;1046;-58
2023/04/23 08:16:12;;;;;;;;;;;;;;;19.06;46.52;95216.06;5013116;28;1112;-58
2023/04/23 08:18:38;;;;;;;;;;;;;;;19.61;46.33;95212.94;5013227;28;1021;-58
2023/04/23 08:21:06;;;;;;;;;;;;;;;19.89;44.72;95209.91;5013142;28;978;-58
2023/04/23 08:23:32;;;;;;;;;;;;;;;19.95;46.33;95200.91;5012562;28;1914;-58
2023/04/23 08:25:58;;;;;;;;;;;;;;;20.34;44.16;95215.25;5013272;28;1058;-59
2023/04/23 08:28:24;;;;;;;;;;;;;;;20.00;44.22;95201.09;5012835;28;1129;-59
2023/04/23 08:30:50;;;;;;;;;;;;;;;20.07;43.46;95201.88;5012873;28;1117;-59
2023/04/23 08:33:16;;;;;;;;;;;;;;;20.02;42.33;95203.59;5012816;28;1062;-58
2023/04/23 08:35:42;;;;;;;;;;;;;;;20.11;44.31;95199.56;5013182;28;1029;-58
2023/04/23 08:38:08;;;;;;;;;;;;;;;20.56;41.75;95209.44;5012739;28;1046;-58
2023/04/23 08:40:36;;;;;;;;;;;;;;;20.58;41.11;95202.75;5015751;28;992;-59
2023/04/23 08:43:05;;;;;;;;;;;;;;;20.39;41.85;95201.84;5016451;28;1105;-58
2023/04/23 08:45:33;;;;;;;;;;;;;;;20.30;42.17;95200.47;5016176;28;1975;-57
2023/04/23 08:47:59;;;;;;;;;;;;;;;20.51;42.66;95192.97;5016354;28;1058;-57
2023/04/23 08:50:27;;;;;;;;;;;;;;;20.76;43.08;95182.97;5016211;28;1121;-57
2023/04/23 08:52:55;;;;;;;;;;;;;;;21.28;41.42;95187.22;5016370;28;1025;-57
2023/04/23 08:55:21;;;;;;;;;;;;;;;21.23;41.68;95185.19;5016426;28;1016;-58
2023/04/23 08:57:48;;;;;;;;;;;;;;;21.36;42.88;95178.75;5016130;28;1058;-57
2023/04/23 09:00:15;;;;;;;;;;;;;;;21.35;41.07;95182.53;5016028;28;1050;-57
2023/04/23 09:02:43;;;;;;;;;;;;;;;21.25;38.91;95189.34;5016061;28;1059;-56
2023/04/23 09:05:09;;;;;;;;;;;;;;;21.13;37.92;95190.31;5015919;28;1906;-54
2023/04/23 09:07:35;;;;;;;;;;;;;;;21.20;38.56;95180.19;5015830;28;1051;-58
2023/04/23 09:10:03;;;;;;;;;;;;;;;21.32;37.70;95178.38;5015839;28;1039;-57
2023/04/23 09:12:29;;;;;;;;;;;;;;;21.01;37.71;95177.47;4998318;28;1556;-57
2023/04/23 09:14:55;;;;;;;;;;;;;;;21.03;38.44;95172.63;4996065;28;1055;-57
2023/04/23 09:17:22;;;;;;;;;;;;;;;21.34;38.49;95168.13;4996050;28;963;-58
2023/04/23 09:19:49;;;;;;;;;;;;;;;21.62;37.84;95166.72;4996327;28;1034;-58
2023/04/23 09:22:35;;;;;;;;;;;;;;;21.60;36.52;95169.69;4995761;28;1093;-57
2023/04/23 09:25:01;;;;;;;;;;;;;;;21.74;38.21;95153.16;4995873;28;1910;-58
2023/04/23 09:27:27;;;;;;;;;;;;;;;22.32;38.19;95157.97;4996007;28;1013;-58
2023/04/23 09:29:56;;;;;;;;;;;;;;;22.20;34.76;95162.56;4996159;28;1007;-58
2023/04/23 09:32:30;;;;;;;;;;;;;;;22.25;35.61;95164.56;4995843;28;1307;-58
2023/04/23 09:34:56;;;;;;;;;;;;;;;22.15;34.73;95160.53;4995748;28;1047;-57
2023/04/23 09:37:24;;;;;;;;;;;;;;;22.45;32.63;95161.56;4995676;28;1248;-57
2023/04/23 09:39:52;;;;;;;;;;;;;;;22.52;32.60;95163.13;4995933;28;1053;-58
2023/04/23 09:42:22;;;;;;;;;;;;;;;22.28;35.15;95153.25;4995665;28;1035;-58
2023/04/23 09:44:55;;;;;;;;;;;;;;;22.68;34.67;95147.13;4995606;28;1914;-58
2023/04/23 09:47:21;;;;;;;;;;;;;;;22.65;34.43;95147.59;4995496;28;959;-58
2023/04/23 09:49:48;;;;;;;;;;;;;;;22.53;33.18;95142.97;4978192;28;967;-58
2023/04/23 09:52:14;;;;;;;;;;;;;;;21.88;32.95;95142.94;4977953;28;977;-57
2023/04/23 09:54:41;;;;;;;;;;;;;;;21.45;33.96;95132.00;4995375;28;1067;-57
2023/04/23 09:57:10;;;;;;;;;;;;;;;21.83;34.06;95132.75;4995413;28;967;-58
2023/04/23 09:59:36;;;;;;;;;;;;;;;22.54;32.88;95130.19;4995369;28;1029;-58
2023/04/23 10:02:04;;;;;;;;;;;;;;;22.47;33.02;95129.47;4995254;28;1153;-58
2023/04/23 10:04:30;;;;;;;;;;;;;;;22.67;33.86;95129.94;4995381;28;1910;-58
2023/04/23 10:06:57;;;;;;;;;;;;;;;22.90;33.18;95122.84;4995344;28;1049;-58
2023/04/23 10:09:24;;;;;;;;;;;;;;;23.18;32.43;95124.78;4995383;28;1075;-57
2023/04/23 10:11:50;;;;;;;;;;;;;;;22.40;33.11;95121.41;5007503;28;1541;-57
2023/04/23 10:14:17;;;;;;;;;;;;;;;21.56;32.76;95124.97;5014612;28;1967;-57
2023/04/23 10:16:45;;;;;;;;;;;;;;;21.45;33.71;95112.97;5014942;28;1065;-57
2023/04/23 10:19:13;;;;;;;;;;;;;;;21.20;32.66;95115.78;5014549;28;1109;-57
2023/04/23 10:21:40;;;;;;;;;;;;;;;21.11;33.86;95106.25;5014473;28;1104;-57
2023/04/23 10:24:41;;;;;;;;;;;;;;;21.24;32.03;95108.81;5011058;28;1942;-58
2023/04/23 10:27:10;;;;;;;;;;;;;;;21.30;32.33;95098.09;5014337;28;1142;-57
2023/04/23 10:29:36;;;;;;;;;;;;;;;21.44;33.59;95092.28;5014689;28;1065;-58
2023/04/23 10:32:03;;;;;;;;;;;;;;;21.27;33.51;95091.22;5014540;28;970;-57
2023/04/23 10:34:30;;;;;;;;;;;;;;;21.04;30.78;95100.09;5014388;28;1060;-57
2023/04/23 10:36:58;;;;;;;;;;;;;;;20.59;32.03;95094.94;5014509;28;1034;-57
2023/04/23 10:39:25;;;;;;;;;;;;;;;20.32;33.63;95092.47;5014189;28;919;-57
2023/04/23 10:41:52;;;;;;;;;;;;;;;20.27;33.27;95087.69;5014461;28;1049;-57
2023/04/23 10:44:20;;;;;;;;;;;;;;;20.39;32.81;95086.97;5014124;28;1999;-57
2023/04/23 10:46:55;;;;;;;;;;;;;;;20.19;33.51;95088.00;5014336;28;981;-57
2023/04/23 10:49:22;;;;;;;;;;;;;;;20.09;32.99;95079.53;5014071;28;1097;-57
2023/04/23 10:51:56;;;;;;;;;;;;;;;20.11;34.46;95076.56;5014278;28;967;-57
2023/04/23 10:54:27;;;;;;;;;;;;;;;20.02;33.89;95078.75;5014265;28;994;-57
2023/04/23 10:56:57;;;;;;;;;;;;;;;20.14;33.69;95076.97;5014154;28;971;-57
2023/04/23 10:59:23;;;;;;;;;;;;;;;20.39;32.68;95071.50;5013953;28;1038;-57
2023/04/23 11:01:49;;;;;;;;;;;;;;;20.81;33.27;95070.88;5013250;28;979;-57
2023/04/23 11:04:23;;;;;;;;;;;;;;;21.57;31.61;95079.53;5013664;28;1910;-57
2023/04/23 11:06:50;;;;;;;;;;;;;;;21.98;30.89;95073.25;5013650;28;974;-57
2023/04/23 11:09:29;;;;;;;;;;;;;;;22.22;32.12;95067.84;5013634;28;1030;-57
2023/04/23 11:11:56;;;;;;;;;;;;;;;22.28;32.31;95072.38;5000484;28;1548;-57
2023/04/23 11:14:53;;;;;;;;;;;;;;;21.83;32.35;95071.00;4994027;28;1022;-57
2023/04/23 11:17:23;;;;;;;;;;;;;;;21.84;31.09;95078.09;4985775;28;1344;-57
2023/04/23 11:20:09;;;;;;;;;;;;;;;21.89;31.29;95073.81;4993984;28;1059;-57
2023/04/23 11:22:36;;;;;;;;;;;;;;;21.35;33.44;95068.31;4993970;28;1106;-57
2023/04/23 11:25:04;;;;;;;;;;;;;;;20.91;30.48;95075.81;4993825;28;1930;-58
2023/04/23 11:27:31;;;;;;;;;;;;;;;20.69;32.09;95072.69;4993869;28;1081;-57
2023/04/23 11:29:57;;;;;;;;;;;;;;;20.82;31.64;95073.38;4993933;28;1034;-57
2023/04/23 11:32:23;;;;;;;;;;;;;;;20.99;34.65;95059.19;4994131;28;1050;-57
2023/04/23 11:34:49;;;;;;;;;;;;;;;20.94;33.82;95056.31;4994083;28;1042;-57
2023/04/23 11:37:16;;;;;;;;;;;;;;;20.66;33.75;95061.22;4993903;28;1065;-57
2023/04/23 11:39:43;;;;;;;;;;;;;;;20.65;34.01;95047.88;4993945;28;1240;-58
2023/04/23 11:42:10;;;;;;;;;;;;;;;20.58;34.63;95047.94;4993729;28;1027;-57
2023/04/23 11:44:40;;;;;;;;;;;;;;;20.60;33.83;95047.72;4993671;28;1987;-57
2023/04/23 11:47:06;;;;;;;;;;;;;;;20.67;33.93;95046.56;4993914;28;979;-57
2023/04/23 11:49:33;;;;;;;;;;;;;;;20.77;32.90;95045.22;4993554;28;1972;-57
2023/04/23 11:52:02;;;;;;;;;;;;;;;20.90;32.16;95047.78;4993615;28;1046;-57
2023/04/23 11:54:28;;;;;;;;;;;;;;;21.39;30.82;95051.31;4993914;28;1049;-57
2023/04/23 11:56:55;;;;;;;;;;;;;;;21.46;32.38;95043.09;4993678;28;990;-57
2023/04/23 11:59:21;;;;;;;;;;;;;;;21.41;30.13;95056.53;4993776;28;962;-57
2023/04/23 12:01:49;;;;;;;;;;;;;;;21.45;30.90;95046.88;4993914;28;1058;-57
2023/04/23 12:04:17;;;;;;;;;;;;;;;21.73;32.09;95050.84;4976369;28;2080;-57
2023/04/23 12:06:44;;;;;;;;;;;;;;;21.89;32.39;95039.25;4993908;28;1041;-57
2023/04/23 12:09:11;;;;;;;;;;;;;;;21.69;31.79;95042.31;4993314;28;1042;-57
2023/04/23 12:11:39;;;;;;;;;;;;;;;21.15;31.37;95042.25;5004163;28;1608;-57
2023/04/23 12:14:07;;;;;;;;;;;;;;;21.19;31.90;95032.56;5015549;28;990;-57
2023/04/23 12:16:37;;;;;;;;;;;;;;;20.85;31.33;95034.06;5016883;28;1050;-57
2023/04/23 12:19:03;;;;;;;;;;;;;;;20.72;32.04;95035.06;5016930;28;1877;-57
2023/04/23 12:21:29;;;;;;;;;;;;;;;20.64;31.60;95029.91;5017181;28;970;-55
2023/04/23 12:23:56;;;;;;;;;;;;;;;20.60;32.05;95028.69;5017134;28;1989;-56
2023/04/23 12:26:24;;;;;;;;;;;;;;;20.48;32.11;95026.69;5016769;28;1244;-56
2023/04/23 12:28:51;;;;;;;;;;;;;;;20.46;32.30;95028.81;5017156;28;1109;-56
2023/04/23 12:31:18;;;;;;;;;;;;;;;20.44;33.52;95013.81;5017074;28;982;-57
2023/04/23 12:33:44;;;;;;;;;;;;;;;20.42;33.05;95019.47;5016830;28;1038;-57
2023/04/23 12:36:10;;;;;;;;;;;;;;;20.42;33.11;95019.47;5016886;28;980;-56
2023/04/23 12:38:38;;;;;;;;;;;;;;;20.32;33.41;95016.47;5016814;28;1057;-57
2023/04/23 12:41:04;;;;;;;;;;;;;;;20.15;33.72;95032.50;5016853;28;1050;-57
2023/04/23 12:43:30;;;;;;;;;;;;;;;19.84;34.16;95026.09;5016743;28;1992;-57
2023/04/23 12:45:56;;;;;;;;;;;;;;;19.76;36.18;95017.41;5016626;28;1048;-56
2023/04/23 12:48:22;;;;;;;;;;;;;;;19.64;36.95;95009.94;5016438;28;1972;-57
2023/04/23 12:50:48;;;;;;;;;;;;;;;19.59;38.37;94990.78;5016443;28;1050;-55
2023/04/23 12:53:15;;;;;;;;;;;;;;;19.79;38.74;94996.09;5016352;28;805;-57
2023/04/23 12:55:44;;;;;;;;;;;;;;;19.85;38.35;94992.47;5016348;28;1050;-56
2023/04/23 12:58:10;;;;;;;;;;;;;;;20.05;39.18;94986.03;5016292;28;1050;-56
2023/04/23 13:00:37;;;;;;;;;;;;;;;20.06;38.63;94979.56;5016540;28;1062;-57